Terminal Aerodrome Forecast
Issued by NWS

Home | Current Version | Previous Version | Graphics & Text | Print | Product List | Glossary On
Versions: 1 2 3 4 5 6 7 8 9 10 11 12 13 14 15 16
323
FTUS43 KICT 190320 AAB
TAFRSL
TAF AMD
KRSL 190320Z 1903/1924 15009KT P6SM SKC
     FM190500 16009KT 5SM BR BKN015
     FM190630 17009KT 2SM BR OVC007
     FM190800 15007KT 1SM BR OVC002
     FM191600 15007KT 4SM BR OVC007
     FM192000 16009KT P6SM OVC008=

USA.gov is the U.S. government's official web portal to all federal, state and local government web resources and services.